• Join FlightAware (Why Join?)
  • Login
  • US Flag 
08:29AM EDT


 

Airport Tracker/Info


-or-


 

Live Flight TrackerFlight Track Log ✈ N7ZD ✈ 14-May-2013 ✈ KMDQ - KPDK

Flight Track Log - Related Links

Times and Time Zones

All times are in EDT time to prevent confusion due to time zone crossing. See the N7ZD flight status page for this flight to view local times or setup timezone preferences in your user account.

Time Position Orientation Groundspeed Altitude Reporting Facility
EDT Latitude Longitude Course Direction KTS MPH feet Rate Location/Type
07:59PM 34.7615 -86.3219 117° Southeast  Level Estimated
08:00PM 34.7448 -86.2827 117° Southeast  Level Estimated
08:00PM 34.6575 -86.1119 118° Southeast 181 208 5,400  Level Atlanta Center
08:01PM 34.7281 -86.2436 117° Southeast  Level Estimated
08:01PM 34.6356 -86.0583 116° Southeast 176 203 5,500  Level Atlanta Center
08:02PM 34.7113 -86.2044 117° Southeast  Level Estimated
08:02PM 34.6133 -86.0022 116° Southeast 176 203 5,400  Level Atlanta Center
08:03PM 34.6946 -86.1652 117° Southeast  Level Estimated
08:03PM 34.5892 -85.9514 120° Southeast 176 203 5,400  Level Atlanta Center
08:04PM 34.6779 -86.1261 117° Southeast  Level Estimated
08:04PM 34.5669 -85.8978 117° Southeast 176 203 5,400  Level Atlanta Center
08:05PM 34.6611 -86.0870 118° Southeast  Level Estimated
08:05PM 34.5450 -85.8444 117° Southeast 176 203 5,400  Level Atlanta Center
08:06PM 34.6443 -86.0479 118° Southeast  Level Estimated
08:06PM 34.5228 -85.7911 117° Southeast 176 203 5,400  Level Atlanta Center
08:07PM 34.5006 -85.7350 116° Southeast 181 208 5,400  Level Atlanta Center
08:08PM 34.4783 -85.6842 118° Southeast 181 208 5,400  Level Atlanta Center
08:09PM 34.4561 -85.6308 117° Southeast 181 208 5,400  Level Atlanta Center
08:10PM 34.4317 -85.5775 119° Southeast 181 208 5,400  Level Atlanta Center
08:11PM 34.4114 -85.5244 115° Southeast 176 203 5,400  Level Atlanta Center
08:12PM 34.3892 -85.4736 118° Southeast 176 203 5,400  Level Atlanta Center
08:13PM 34.3647 -85.4203 119° Southeast 176 203 5,500  Climbing Atlanta Center
08:14PM 34.3422 -85.3647 116° Southeast 176 203 5,500  Level Atlanta Center
08:15PM 34.3239 -85.3192 116° Southeast 176 203 5,500  Level Atlanta Center
08:16PM 34.3017 -85.2658 117° Southeast 176 203 5,500  Level Atlanta Center
08:17PM 34.2769 -85.2128 119° Southeast 176 203 5,500  Level Atlanta Center
08:18PM 34.2544 -85.1647 120° Southeast 176 203 5,500  Level Atlanta Center
08:19PM 34.2319 -85.1117 117° Southeast 176 203 5,500  Level Atlanta Center
08:20PM 34.2075 -85.0611 120° Southeast 181 208 5,500  Level Atlanta Center
08:21PM 34.1850 -85.0006 114° Southeast 181 208 5,500  Level Atlanta Center
08:22PM 34.1625 -84.9500 118° Southeast 175 201 5,500  Level Atlanta Center
08:23PM 34.1397 -84.8997 119° Southeast 175 201 5,500  Level Atlanta Center
08:24PM 34.1172 -84.8517 119° Southeast 175 201 5,500  Level Atlanta Center
08:25PM 34.0944 -84.7989 118° Southeast 175 201 5,500 -180 Level Atlanta Center
08:27PM 34.0667 -84.7167 112° Southeast 184 212 5,100 -360 Descending Atlanta TRACON
08:28PM 34.0333 -84.6667 129° Southeast 183 211 4,600 -480 Descending Atlanta TRACON
08:29PM 34.0167 -84.6000 107° East 184 212 4,200 -420 Descending Atlanta TRACON
08:30PM 33.9833 -84.5500 129° Southeast 176 203 3,800 -360 Descending Atlanta TRACON
08:31PM 33.9667 -84.5000 112° Southeast 176 203 3,500 -360 Descending Atlanta TRACON
08:32PM 33.9500 -84.4500 112° Southeast 167 192 3,100 -300 Descending Atlanta TRACON
08:33PM 33.9167 -84.4000 129° Southeast 160 184 2,900 -480 Descending Atlanta TRACON
08:34PM 33.9167 -84.3500 90° East 164 189 2,200 -540 Descending Atlanta TRACON
08:35PM 33.9167 -84.3000 90° East 128 147 1,900 -240 Descending Atlanta TRACON
08:36PM 33.9167 -84.2833 90° East 131 151 1,800 -120 Descending Atlanta TRACON
08:38PM 33.8756 -84.3020 140° Southeast  Level Estimated
08:45PM 33.8756 -84.3020 140° Southeast  Level Estimated
08:46PM 33.8756 -84.3020 140° Southeast  Level Estimated